Time;durP1;ratioP1;P1;durP2;ratioP2;P2;SDS_P1;SDS_P2;PMS_P1;PMS_P2;Temp;Humidity;BMP_temperature;BMP_pressure;BME280_temperature;BME280_humidity;BME280_pressure;Samples;Min_cycle;Max_cycle;Signal;HPM_P1;HPM_P2
2021/10/20 00:00:18;;;;;;;24.80;23.30;;;13.00;80.80;;;;;;5002778;28;20485;-72
2021/10/20 00:02:45;;;;;;;24.57;23.27;;;12.90;81.00;;;;;;5001658;28;20472;-73
2021/10/20 00:05:13;;;;;;;25.23;23.93;;;12.90;80.90;;;;;;5002974;28;21564;-72
2021/10/20 00:07:40;;;;;;;25.73;24.27;;;12.90;81.00;;;;;;5002429;28;20994;-71
2021/10/20 00:10:08;;;;;;;25.37;24.03;;;12.80;81.10;;;;;;5004003;28;20449;-72
2021/10/20 00:12:36;;;;;;;26.53;24.83;;;12.70;81.60;;;;;;5002552;28;20646;-72
2021/10/20 00:15:04;;;;;;;25.37;23.77;;;12.70;81.70;;;;;;5003127;28;20471;-72
2021/10/20 00:17:31;;;;;;;24.03;22.63;;;12.70;81.80;;;;;;5002569;28;20561;-73
2021/10/20 00:20:05;;;;;;;24.73;23.27;;;12.70;81.70;;;;;;5005419;28;20480;-73
2021/10/20 00:22:34;;;;;;;25.00;23.50;;;12.70;81.60;;;;;;5004156;28;20511;-72
2021/10/20 00:25:01;;;;;;;23.97;22.37;;;12.60;81.80;;;;;;5005287;28;21286;-72
2021/10/20 00:27:28;;;;;;;24.10;22.60;;;12.60;82.00;;;;;;5001354;28;20449;-72
2021/10/20 00:29:55;;;;;;;23.90;22.40;;;12.60;81.90;;;;;;5002419;28;20458;-72
2021/10/20 00:32:22;;;;;;;25.20;23.70;;;12.70;81.90;;;;;;5001585;28;20491;-72
2021/10/20 00:34:49;;;;;;;24.40;23.00;;;12.70;81.90;;;;;;5002626;28;20476;-72
2021/10/20 00:37:16;;;;;;;23.87;22.47;;;12.60;81.80;;;;;;5001206;28;20469;-72
2021/10/20 00:39:45;;;;;;;25.27;23.87;;;12.50;81.90;;;;;;5003245;28;20485;-72
2021/10/20 00:42:12;;;;;;;24.63;23.03;;;12.50;82.10;;;;;;5003358;28;20570;-72
2021/10/20 00:44:47;;;;;;;25.10;23.60;;;12.50;81.90;;;;;;5003111;28;22495;-72
2021/10/20 00:47:14;;;;;;;24.83;23.47;;;12.50;81.80;;;;;;5001305;28;20459;-72
2021/10/20 00:49:41;;;;;;;24.10;22.80;;;12.50;82.00;;;;;;5001845;28;20504;-72
2021/10/20 00:52:08;;;;;;;24.57;23.17;;;12.40;81.90;;;;;;5002503;28;20481;-69
2021/10/20 00:54:36;;;;;;;24.37;22.97;;;12.50;81.90;;;;;;5002184;28;20463;-70
2021/10/20 00:57:05;;;;;;;24.23;22.73;;;12.50;81.90;;;;;;5001030;28;20465;-69
2021/10/20 00:59:32;;;;;;;24.30;22.90;;;12.50;81.80;;;;;;5002806;28;20567;-69
2021/10/20 01:01:59;;;;;;;24.50;23.00;;;12.50;82.10;;;;;;5001322;28;20483;-69
2021/10/20 01:04:26;;;;;;;24.60;23.17;;;12.40;82.20;;;;;;5001859;28;20466;-70
2021/10/20 01:06:53;;;;;;;25.60;24.20;;;12.40;81.90;;;;;;5000852;28;20452;-69
2021/10/20 01:09:20;;;;;;;25.47;23.93;;;12.40;82.20;;;;;;5001625;28;20457;-70
2021/10/20 01:11:47;;;;;;;23.97;22.67;;;12.30;82.50;;;;;;5000694;28;20487;-70
2021/10/20 01:14:16;;;;;;;25.57;24.17;;;12.20;82.90;;;;;;5002136;28;20463;-69
2021/10/20 01:16:43;;;;;;;25.43;23.70;;;12.20;82.90;;;;;;5004155;28;20472;-69
2021/10/20 01:19:13;;;;;;;24.40;23.10;;;12.20;83.10;;;;;;5002392;28;20479;-69
2021/10/20 01:21:43;;;;;;;24.87;23.47;;;12.10;83.20;;;;;;5000323;28;21127;-70
2021/10/20 01:24:10;;;;;;;25.53;24.13;;;12.00;83.40;;;;;;5008079;28;20463;-69
2021/10/20 01:26:37;;;;;;;25.33;23.73;;;12.10;83.30;;;;;;5006125;28;20906;-69
2021/10/20 01:29:03;;;;;;;24.60;23.13;;;12.00;83.60;;;;;;5006298;28;20455;-69
2021/10/20 01:31:30;;;;;;;24.13;22.67;;;12.00;83.80;;;;;;5006961;28;20506;-70
2021/10/20 01:33:57;;;;;;;23.20;22.00;;;12.00;83.80;;;;;;5010926;28;20978;-71
2021/10/20 01:36:24;;;;;;;24.07;22.70;;;12.00;83.70;;;;;;5011306;28;20464;-72
2021/10/20 01:38:53;;;;;;;25.30;23.90;;;11.90;83.90;;;;;;5006824;28;20972;-72
2021/10/20 01:41:20;;;;;;;24.40;23.00;;;11.90;84.00;;;;;;5007187;28;20478;-69
2021/10/20 01:43:49;;;;;;;25.80;24.30;;;11.90;83.90;;;;;;5004994;28;20460;-69
2021/10/20 01:46:17;;;;;;;24.00;22.43;;;11.90;84.00;;;;;;5008282;28;20471;-69
2021/10/20 01:48:45;;;;;;;24.57;23.17;;;11.90;83.70;;;;;;5006455;28;20463;-69
2021/10/20 01:51:11;;;;;;;24.90;23.30;;;11.90;83.00;;;;;;5007166;28;20561;-69
2021/10/20 01:53:39;;;;;;;24.00;22.50;;;11.90;83.30;;;;;;5006135;28;20846;-69
2021/10/20 01:56:10;;;;;;;23.53;22.13;;;12.00;83.00;;;;;;5007106;28;20969;-70
2021/10/20 01:58:37;;;;;;;24.70;23.30;;;12.00;82.70;;;;;;5006319;28;20843;-70
2021/10/20 02:01:07;;;;;;;23.73;22.43;;;12.10;82.10;;;;;;5006976;28;20507;-69
2021/10/20 02:03:35;;;;;;;25.10;23.60;;;12.10;81.50;;;;;;5005435;28;20551;-69
2021/10/20 02:06:03;;;;;;;24.73;23.33;;;12.10;81.20;;;;;;5007142;28;20478;-69
2021/10/20 02:08:30;;;;;;;24.67;23.20;;;12.20;80.80;;;;;;5006427;28;20456;-69
2021/10/20 02:10:57;;;;;;;25.03;23.53;;;12.30;80.30;;;;;;5007106;28;21265;-69
2021/10/20 02:13:26;;;;;;;25.10;23.70;;;12.40;79.90;;;;;;5006192;28;20869;-70
2021/10/20 02:15:53;;;;;;;24.63;23.23;;;12.40;79.20;;;;;;5006526;28;20468;-70
2021/10/20 02:18:20;;;;;;;24.87;23.37;;;12.50;78.70;;;;;;5006459;28;20774;-69
2021/10/20 02:20:47;;;;;;;25.60;24.20;;;12.60;78.00;;;;;;5006529;28;21016;-70
2021/10/20 02:23:15;;;;;;;25.30;23.93;;;12.70;77.10;;;;;;5002775;28;20464;-70
2021/10/20 02:25:42;;;;;;;25.87;24.27;;;12.80;77.10;;;;;;5003475;28;20482;-70
2021/10/20 02:28:09;;;;;;;26.23;24.73;;;12.90;76.40;;;;;;5002626;28;20552;-69
2021/10/20 02:30:37;;;;;;;25.90;24.40;;;13.00;76.10;;;;;;5003261;28;22195;-69
2021/10/20 02:33:05;;;;;;;25.20;23.80;;;13.10;76.10;;;;;;5001918;28;20464;-69
2021/10/20 02:35:32;;;;;;;25.47;23.97;;;13.10;76.10;;;;;;5003819;28;20465;-69
2021/10/20 02:37:59;;;;;;;25.90;24.40;;;13.00;75.80;;;;;;5003310;28;20562;-69
2021/10/20 02:40:26;;;;;;;25.73;24.23;;;13.00;76.20;;;;;;5004600;28;20476;-69
2021/10/20 02:42:53;;;;;;;26.27;24.70;;;13.00;76.40;;;;;;5002988;28;20618;-69
2021/10/20 02:45:21;;;;;;;25.30;23.90;;;13.00;76.40;;;;;;5004308;28;20462;-69
2021/10/20 02:47:49;;;;;;;25.63;24.10;;;13.00;76.20;;;;;;5003774;28;20452;-69
2021/10/20 02:50:16;;;;;;;25.63;24.23;;;12.90;75.70;;;;;;5003977;28;20606;-70
2021/10/20 02:52:43;;;;;;;25.00;23.50;;;13.00;75.60;;;;;;5003100;28;20629;-69
2021/10/20 02:55:11;;;;;;;28.60;26.97;;;12.90;75.80;;;;;;5004862;28;20471;-70
2021/10/20 02:57:38;;;;;;;24.80;23.30;;;13.00;75.50;;;;;;5003037;28;20852;-69
2021/10/20 03:00:06;;;;;;;25.50;24.07;;;13.00;75.90;;;;;;5004410;28;20483;-70
2021/10/20 03:02:33;;;;;;;24.10;22.70;;;13.00;75.60;;;;;;5003637;28;20482;-70
2021/10/20 03:05:01;;;;;;;24.53;23.13;;;12.90;75.80;;;;;;5005227;28;20996;-70
2021/10/20 03:07:28;;;;;;;25.67;24.10;;;12.90;76.30;;;;;;5004095;28;20498;-69
2021/10/20 03:09:55;;;;;;;26.80;25.07;;;12.90;76.40;;;;;;5004040;28;21167;-72
2021/10/20 03:12:22;;;;;;;26.83;25.43;;;12.90;76.20;;;;;;5003605;28;20482;-73
2021/10/20 03:14:48;;;;;;;26.93;25.30;;;12.90;75.50;;;;;;5005319;28;20464;-72
2021/10/20 03:17:16;;;;;;;24.70;23.30;;;12.90;75.20;;;;;;5004055;28;20471;-72
2021/10/20 03:19:44;;;;;;;24.57;23.00;;;12.90;74.60;;;;;;5003583;28;20494;-73
2021/10/20 03:22:12;;;;;;;26.30;24.70;;;13.00;74.70;;;;;;5002783;28;20997;-72
2021/10/20 03:24:40;;;;;;;26.33;24.77;;;13.00;75.50;;;;;;5006633;28;20749;-71
2021/10/20 03:27:06;;;;;;;26.60;25.00;;;12.90;75.40;;;;;;5002273;28;20851;-72
2021/10/20 03:29:33;;;;;;;26.80;25.00;;;12.90;75.10;;;;;;5004585;28;21140;-72
2021/10/20 03:32:00;;;;;;;26.80;25.23;;;12.90;74.80;;;;;;5005723;28;20488;-72
2021/10/20 03:34:27;;;;;;;27.13;25.20;;;13.00;74.80;;;;;;5008570;28;20455;-72
2021/10/20 03:36:54;;;;;;;27.23;25.43;;;13.00;74.50;;;;;;5009901;28;20681;-73
2021/10/20 03:39:23;;;;;;;26.13;24.53;;;13.10;74.20;;;;;;5007739;28;20471;-71
2021/10/20 03:41:50;;;;;;;28.63;26.93;;;13.10;73.80;;;;;;5007482;28;20486;-72
2021/10/20 03:44:17;;;;;;;26.20;24.43;;;13.20;73.70;;;;;;5007534;28;20462;-72
2021/10/20 03:46:44;;;;;;;27.17;25.53;;;13.30;73.30;;;;;;5007959;28;20578;-71
2021/10/20 03:49:10;;;;;;;25.83;24.33;;;13.30;73.10;;;;;;5005103;28;20475;-73
2021/10/20 03:51:37;;;;;;;25.37;23.77;;;13.30;72.80;;;;;;5002993;28;21026;-72
2021/10/20 03:54:04;;;;;;;27.47;25.23;;;13.30;73.00;;;;;;5004399;28;20467;-73
2021/10/20 03:56:32;;;;;;;26.87;25.37;;;13.20;73.70;;;;;;5008452;28;20456;-72
2021/10/20 03:58:59;;;;;;;26.10;24.50;;;13.20;74.00;;;;;;5005749;28;20958;-73
2021/10/20 04:01:26;;;;;;;27.90;26.50;;;13.20;74.00;;;;;;5008291;28;20550;-72
2021/10/20 04:03:53;;;;;;;25.47;23.97;;;13.10;74.20;;;;;;5006400;28;20717;-73
2021/10/20 04:06:20;;;;;;;26.07;24.57;;;13.00;74.60;;;;;;5007762;28;20858;-72
2021/10/20 04:08:47;;;;;;;25.50;24.10;;;12.90;75.20;;;;;;5006554;28;20891;-72
2021/10/20 04:11:14;;;;;;;26.40;24.80;;;12.90;75.20;;;;;;5006494;28;20483;-72
2021/10/20 04:13:42;;;;;;;25.87;24.37;;;12.80;74.60;;;;;;5005797;28;20490;-72
2021/10/20 04:16:10;;;;;;;27.00;25.20;;;12.80;74.90;;;;;;5007082;28;20989;-71
2021/10/20 04:18:37;;;;;;;25.80;24.30;;;12.80;75.30;;;;;;5006285;28;20468;-72
2021/10/20 04:21:04;;;;;;;24.83;23.23;;;12.70;76.00;;;;;;5006637;28;20488;-72
2021/10/20 04:23:31;;;;;;;25.13;23.60;;;12.60;76.30;;;;;;5004450;28;20456;-73
2021/10/20 04:25:58;;;;;;;26.13;24.53;;;12.50;76.70;;;;;;5007349;28;20452;-71
2021/10/20 04:28:25;;;;;;;25.37;23.87;;;12.50;77.00;;;;;;5005750;28;20465;-71
2021/10/20 04:30:53;;;;;;;26.63;24.83;;;12.40;77.40;;;;;;5007450;28;20473;-72
2021/10/20 04:33:20;;;;;;;27.00;25.33;;;12.30;78.00;;;;;;5008150;28;20475;-72
2021/10/20 04:35:47;;;;;;;25.67;24.07;;;12.20;78.30;;;;;;5007235;28;20470;-72
2021/10/20 04:38:14;;;;;;;25.80;24.30;;;12.10;78.60;;;;;;5007155;28;20474;-72
2021/10/20 04:40:41;;;;;;;25.50;23.90;;;12.10;78.70;;;;;;5005421;28;20984;-72
2021/10/20 04:43:08;;;;;;;25.17;23.77;;;12.00;79.70;;;;;;5004970;28;20481;-72
2021/10/20 04:45:35;;;;;;;24.93;23.63;;;11.90;80.20;;;;;;5008339;28;20467;-71
2021/10/20 04:48:03;;;;;;;25.90;24.40;;;11.80;80.50;;;;;;5006395;28;20471;-71
2021/10/20 04:50:30;;;;;;;26.37;24.67;;;11.80;80.50;;;;;;5005110;28;20460;-72
2021/10/20 04:52:57;;;;;;;25.20;23.73;;;11.70;80.50;;;;;;5004516;28;20693;-72
2021/10/20 04:55:24;;;;;;;24.87;23.47;;;11.60;80.80;;;;;;5005583;28;20460;-72
2021/10/20 04:57:53;;;;;;;25.27;23.83;;;11.60;80.90;;;;;;5005899;28;20452;-71
2021/10/20 05:00:22;;;;;;;26.20;24.70;;;11.70;80.50;;;;;;5004937;28;20606;-73
2021/10/20 05:02:49;;;;;;;26.20;24.80;;;11.70;80.60;;;;;;5004241;28;20493;-71
2021/10/20 05:05:18;;;;;;;25.00;23.40;;;11.70;80.60;;;;;;5010141;28;20751;-72
2021/10/20 05:07:49;;;;;;;25.87;24.40;;;11.70;80.50;;;;;;5005856;28;20965;-71
2021/10/20 05:10:16;;;;;;;25.50;24.00;;;11.70;80.00;;;;;;5005455;28;20464;-72
2021/10/20 05:12:43;;;;;;;24.70;23.27;;;11.80;79.30;;;;;;5003107;28;20483;-72
2021/10/20 05:15:12;;;;;;;25.53;24.03;;;11.90;79.30;;;;;;5006902;28;20472;-72
2021/10/20 05:17:39;;;;;;;27.03;25.43;;;11.90;79.30;;;;;;5005810;28;20551;-72
2021/10/20 05:20:08;;;;;;;27.57;26.07;;;11.90;79.60;;;;;;5005354;28;20966;-73
2021/10/20 05:22:37;;;;;;;25.40;24.00;;;11.90;79.80;;;;;;5004778;28;20557;-70
2021/10/20 05:25:06;;;;;;;30.43;28.80;;;11.90;79.50;;;;;;5005573;28;20802;-72
2021/10/20 05:27:33;;;;;;;26.33;24.83;;;11.90;79.00;;;;;;5004514;28;20495;-72
2021/10/20 05:30:00;;;;;;;25.87;24.47;;;11.90;78.60;;;;;;5005702;28;20803;-70
2021/10/20 05:32:28;;;;;;;26.40;24.80;;;12.00;78.60;;;;;;5003325;28;20510;-70
2021/10/20 05:34:56;;;;;;;25.50;24.10;;;12.00;78.70;;;;;;5000553;28;20475;-70
2021/10/20 05:37:23;;;;;;;27.87;26.23;;;12.00;78.70;;;;;;5002050;28;20470;-71
2021/10/20 05:39:53;;;;;;;24.77;23.40;;;12.00;79.10;;;;;;5005810;28;20461;-70
2021/10/20 05:42:21;;;;;;;26.80;25.20;;;11.90;79.70;;;;;;5004055;28;20533;-70
2021/10/20 05:44:48;;;;;;;27.67;25.97;;;11.90;79.70;;;;;;5004172;28;20459;-71
2021/10/20 05:47:15;;;;;;;25.00;23.50;;;11.90;79.60;;;;;;5004256;28;20833;-69
2021/10/20 05:49:42;;;;;;;27.00;25.50;;;11.80;79.80;;;;;;5003816;28;20475;-69
2021/10/20 05:52:09;;;;;;;25.20;23.90;;;11.90;80.20;;;;;;5003294;28;20487;-69
2021/10/20 05:54:36;;;;;;;25.43;24.03;;;11.80;80.30;;;;;;5005126;28;20830;-69
2021/10/20 05:57:05;;;;;;;25.80;23.73;;;11.80;80.40;;;;;;5004140;28;20827;-70
2021/10/20 05:59:32;;;;;;;27.00;25.20;;;11.80;80.50;;;;;;5004251;28;20905;-70
2021/10/20 06:01:59;;;;;;;25.57;23.60;;;11.80;80.50;;;;;;5010008;28;20490;-71
2021/10/20 06:04:25;;;;;;;25.97;24.57;;;11.80;80.60;;;;;;5024340;28;20459;-69
2021/10/20 06:06:52;;;;;;;25.33;23.70;;;11.80;80.60;;;;;;5027551;28;20492;-70
2021/10/20 06:09:19;;;;;;;27.13;25.13;;;11.80;81.00;;;;;;5025874;28;20546;-70
2021/10/20 06:11:46;;;;;;;26.27;24.77;;;11.80;80.90;;;;;;5016683;28;21011;-71
2021/10/20 06:14:14;;;;;;;26.10;24.20;;;11.90;80.80;;;;;;5025970;28;20826;-71
2021/10/20 06:16:42;;;;;;;31.00;29.40;;;11.90;80.70;;;;;;5027464;28;20467;-70
2021/10/20 06:19:09;;;;;;;28.83;27.23;;;11.90;80.80;;;;;;5026685;28;20455;-71
2021/10/20 06:21:36;;;;;;;28.60;26.87;;;11.90;80.60;;;;;;5026708;28;20494;-71
2021/10/20 06:24:03;;;;;;;25.90;24.40;;;11.90;80.20;;;;;;5027205;28;20570;-70
2021/10/20 06:26:29;;;;;;;26.43;24.83;;;11.90;80.50;;;;;;5014842;28;20459;-71
2021/10/20 06:28:57;;;;;;;29.03;27.03;;;12.00;80.30;;;;;;5027323;28;20459;-70
2021/10/20 06:31:25;;;;;;;25.77;24.37;;;12.00;80.30;;;;;;5025167;28;20911;-69
2021/10/20 06:33:52;;;;;;;27.50;26.00;;;12.00;80.40;;;;;;5023030;28;20458;-68
2021/10/20 06:36:23;;;;;;;27.30;25.70;;;12.10;80.20;;;;;;5025212;28;20455;-69
2021/10/20 06:38:50;;;;;;;25.60;24.10;;;12.10;79.90;;;;;;5022680;28;20991;-69
2021/10/20 06:41:17;;;;;;;30.33;28.53;;;12.10;80.10;;;;;;5014704;28;21408;-69
2021/10/20 06:43:44;;;;;;;27.20;25.60;;;12.10;80.00;;;;;;5017557;28;21227;-69
2021/10/20 06:46:11;;;;;;;27.23;25.50;;;12.10;80.10;;;;;;5024557;28;20468;-69
2021/10/20 06:48:42;;;;;;;26.63;25.10;;;12.20;80.20;;;;;;5031449;28;20462;-71
2021/10/20 06:51:10;;;;;;;25.07;23.50;;;12.30;80.20;;;;;;5009625;28;21137;-71
2021/10/20 06:53:36;;;;;;;25.50;24.00;;;12.30;80.40;;;;;;5009868;28;20522;-71
2021/10/20 06:56:05;;;;;;;27.90;26.23;;;12.40;80.50;;;;;;5012402;28;20457;-71
2021/10/20 06:58:32;;;;;;;26.10;24.57;;;12.40;80.20;;;;;;5024738;28;20452;-71
2021/10/20 07:00:59;;;;;;;27.03;25.53;;;12.50;80.20;;;;;;5023894;28;20570;-71
2021/10/20 07:03:26;;;;;;;27.57;25.87;;;12.60;80.20;;;;;;5026031;28;20459;-71
2021/10/20 07:05:54;;;;;;;26.60;24.80;;;12.50;80.50;;;;;;5022315;28;20459;-71
2021/10/20 07:08:26;;;;;;;27.13;25.63;;;12.60;80.60;;;;;;5028767;28;20857;-70
2021/10/20 07:11:29;;;;;;;26.83;24.70;;;12.70;80.40;;;;;;5014166;28;20477;-71
2021/10/20 07:13:59;;;;;;;25.50;24.10;;;12.80;79.70;;;;;;5023785;28;20469;-70
2021/10/20 07:16:27;;;;;;;28.07;26.40;;;12.90;79.60;;;;;;5030371;28;20486;-71
2021/10/20 07:18:56;;;;;;;26.03;24.53;;;12.90;79.70;;;;;;5029121;28;20535;-71
2021/10/20 07:21:25;;;;;;;26.50;24.80;;;12.90;79.50;;;;;;5024028;28;20533;-71
2021/10/20 07:23:52;;;;;;;27.13;25.73;;;13.00;80.00;;;;;;5019956;28;20458;-71
2021/10/20 07:26:21;;;;;;;28.60;26.90;;;13.20;79.40;;;;;;5028425;28;20522;-70
2021/10/20 07:28:48;;;;;;;26.07;24.40;;;13.30;78.80;;;;;;5030881;28;20547;-71
2021/10/20 07:31:16;;;;;;;27.05;25.25;;;13.50;78.20;;;;;;5028466;28;20498;-70
2021/10/20 07:33:43;;;;;;;27.03;25.43;;;13.70;77.60;;;;;;5030029;28;20871;-72
2021/10/20 07:36:25;;;;;;;25.83;24.23;;;13.90;76.80;;;;;;5029219;28;20554;-70
2021/10/20 07:38:53;;;;;;;25.90;24.43;;;14.00;76.10;;;;;;5032020;28;20819;-71
2021/10/20 07:41:20;;;;;;;26.47;24.97;;;14.20;75.20;;;;;;5025310;28;20494;-70
2021/10/20 07:43:47;;;;;;;28.93;27.17;;;14.40;74.00;;;;;;5024588;28;20466;-70
2021/10/20 07:46:14;;;;;;;26.90;25.47;;;14.60;72.40;;;;;;5024625;28;20478;-70
2021/10/20 07:48:41;;;;;;;27.10;25.23;;;14.90;70.50;;;;;;5016980;28;21306;-70
2021/10/20 07:51:08;;;;;;;26.80;25.33;;;15.20;69.20;;;;;;5021601;28;20525;-70
2021/10/20 07:53:36;;;;;;;28.30;26.53;;;15.40;68.50;;;;;;5029777;28;20480;-71
2021/10/20 07:56:05;;;;;;;26.57;25.10;;;15.60;67.80;;;;;;5029092;28;20462;-72
2021/10/20 07:58:31;;;;;;;27.40;25.90;;;15.80;67.30;;;;;;5030495;28;20452;-72
2021/10/20 08:00:59;;;;;;;27.30;25.80;;;16.00;67.00;;;;;;5027796;28;20476;-72
2021/10/20 08:03:25;;;;;;;28.80;27.20;;;16.10;66.70;;;;;;5027800;28;20529;-70
2021/10/20 08:05:52;;;;;;;28.27;26.47;;;16.30;66.20;;;;;;5027597;28;20471;-70
2021/10/20 08:08:19;;;;;;;27.83;26.23;;;16.50;65.40;;;;;;5027688;28;20460;-71
2021/10/20 08:10:46;;;;;;;29.40;27.43;;;16.60;65.00;;;;;;5028742;28;20594;-71
2021/10/20 08:13:15;;;;;;;28.87;27.27;;;16.80;65.00;;;;;;5024925;28;20652;-70
2021/10/20 08:15:42;;;;;;;28.00;26.40;;;17.00;64.10;;;;;;5028385;28;20467;-71
2021/10/20 08:18:10;;;;;;;27.93;26.33;;;17.20;63.50;;;;;;5029291;28;20455;-71
2021/10/20 08:20:38;;;;;;;28.40;26.80;;;17.30;63.10;;;;;;5027606;28;21048;-70
2021/10/20 08:23:06;;;;;;;28.10;26.40;;;17.60;62.70;;;;;;5029975;28;20542;-70
2021/10/20 08:25:35;;;;;;;29.20;27.50;;;17.80;62.00;;;;;;5027083;28;21082;-71
2021/10/20 08:28:02;;;;;;;28.50;26.80;;;18.00;61.80;;;;;;5006734;28;20460;-71
2021/10/20 08:30:31;;;;;;;28.20;26.50;;;18.10;61.20;;;;;;5020331;28;20464;-71
2021/10/20 08:32:58;;;;;;;28.37;26.70;;;18.20;61.40;;;;;;5024633;28;20525;-71
2021/10/20 08:35:25;;;;;;;28.00;26.30;;;18.50;60.90;;;;;;5020033;28;20462;-71
2021/10/20 08:37:56;;;;;;;26.53;25.03;;;18.70;59.80;;;;;;5021853;28;20471;-71
2021/10/20 08:40:26;;;;;;;27.20;25.70;;;18.80;59.50;;;;;;5026236;28;20883;-71
2021/10/20 08:42:53;;;;;;;27.20;25.60;;;19.00;58.90;;;;;;5032614;28;20487;-71
2021/10/20 08:45:20;;;;;;;27.47;26.00;;;19.00;58.90;;;;;;5018672;28;20582;-71
2021/10/20 08:47:49;;;;;;;27.87;26.27;;;19.10;58.80;;;;;;5028828;28;20539;-71
2021/10/20 08:50:20;;;;;;;27.70;26.30;;;19.10;59.00;;;;;;5022853;28;20486;-71
2021/10/20 08:52:48;;;;;;;26.80;25.30;;;19.20;58.80;;;;;;5023576;28;20485;-71
2021/10/20 08:55:16;;;;;;;26.40;24.90;;;19.40;58.70;;;;;;5027128;28;20529;-71
2021/10/20 08:57:43;;;;;;;27.20;25.73;;;19.50;58.40;;;;;;5024676;28;20506;-71
2021/10/20 09:00:13;;;;;;;30.23;27.97;;;19.40;58.40;;;;;;5026985;28;20987;-71
2021/10/20 09:02:40;;;;;;;27.60;25.97;;;19.50;58.60;;;;;;5028754;28;20989;-71
2021/10/20 09:05:11;;;;;;;28.73;27.13;;;19.60;58.90;;;;;;5024890;28;20518;-71
2021/10/20 09:07:41;;;;;;;27.40;25.80;;;19.70;58.00;;;;;;5027676;28;20462;-71
2021/10/20 09:10:09;;;;;;;28.47;26.67;;;19.70;58.30;;;;;;5022594;28;20463;-71
2021/10/20 09:12:40;;;;;;;28.20;26.60;;;19.80;58.60;;;;;;5025265;28;20479;-71
2021/10/20 09:15:08;;;;;;;29.10;27.30;;;19.90;58.10;;;;;;5025854;28;20538;-71
2021/10/20 09:17:50;;;;;;;28.50;26.33;;;20.00;58.30;;;;;;5026788;28;20451;-72
2021/10/20 09:20:26;;;;;;;29.30;27.70;;;20.10;58.10;;;;;;5022754;28;20483;-71
2021/10/20 09:22:59;;;;;;;28.23;26.53;;;20.20;57.80;;;;;;5027024;28;20483;-71
2021/10/20 09:25:32;;;;;;;30.03;28.13;;;20.20;57.80;;;;;;5027565;28;20466;-72
2021/10/20 09:27:59;;;;;;;30.53;28.70;;;20.30;57.90;;;;;;5029323;28;20870;-72
2021/10/20 09:30:29;;;;;;;27.53;26.07;;;20.30;58.30;;;;;;5016139;28;20464;-72
2021/10/20 09:32:59;;;;;;;28.97;27.40;;;20.40;57.90;;;;;;5025808;28;20474;-72
2021/10/20 09:35:29;;;;;;;29.10;27.40;;;20.40;57.90;;;;;;5022472;28;20460;-72
2021/10/20 09:37:58;;;;;;;27.00;25.23;;;20.40;58.30;;;;;;5024837;28;20471;-73
2021/10/20 09:40:26;;;;;;;27.83;26.23;;;20.40;58.70;;;;;;5023339;28;20471;-72
2021/10/20 09:42:54;;;;;;;28.37;26.77;;;20.50;58.70;;;;;;5025547;28;21208;-73
2021/10/20 09:45:22;;;;;;;28.97;27.37;;;20.60;58.30;;;;;;5022298;28;20491;-73
2021/10/20 09:47:50;;;;;;;28.00;26.37;;;20.70;58.20;;;;;;5024276;28;20460;-72
2021/10/20 09:50:18;;;;;;;29.73;28.13;;;20.90;57.80;;;;;;5022609;28;20472;-73
2021/10/20 09:52:49;;;;;;;29.07;27.27;;;21.00;57.60;;;;;;5027673;28;20474;-76
2021/10/20 09:55:24;;;;;;;29.43;27.83;;;21.10;57.80;;;;;;5026532;28;20536;-73
2021/10/20 09:57:54;;;;;;;27.47;25.73;;;21.10;57.30;;;;;;5028497;28;21043;-76
2021/10/20 10:00:22;;;;;;;27.40;25.70;;;21.40;56.70;;;;;;5025751;28;20537;-75
2021/10/20 11:43:54;;;;;;;26.73;25.33;;;21.60;58.40;;;;;;5050105;27;20555;-74
2021/10/20 11:46:27;;;;;;;27.33;25.93;;;22.00;58.30;;;;;;5026406;28;21030;-74
2021/10/20 11:48:53;;;;;;;27.03;25.63;;;22.40;57.00;;;;;;5029338;28;20458;-74
2021/10/20 11:51:22;;;;;;;26.50;25.10;;;22.90;56.20;;;;;;5018975;28;20498;-75
2021/10/20 11:53:49;;;;;;;27.20;25.70;;;23.20;55.30;;;;;;5019041;28;20459;-75
2021/10/20 11:56:16;;;;;;;27.60;26.00;;;23.50;55.10;;;;;;5017646;28;20463;-73
2021/10/20 11:58:43;;;;;;;26.70;25.30;;;23.80;54.00;;;;;;5018880;28;20977;-71
2021/10/20 12:01:14;;;;;;;28.30;26.60;;;23.90;53.70;;;;;;5039137;28;20863;-77
2021/10/20 12:03:43;;;;;;;28.57;26.97;;;24.00;53.50;;;;;;5038291;28;20525;-70
2021/10/20 12:06:12;;;;;;;27.20;25.47;;;24.30;52.90;;;;;;5041642;28;20462;-70
2021/10/20 12:08:45;;;;;;;26.60;25.10;;;24.20;52.70;;;;;;5043050;28;20881;-70
2021/10/20 12:11:12;;;;;;;26.40;25.00;;;24.20;53.00;;;;;;5042680;28;20471;-70
2021/10/20 12:13:40;;;;;;;27.37;25.87;;;24.20;53.10;;;;;;5050254;28;20462;-70
2021/10/20 12:16:08;;;;;;;27.80;26.10;;;24.40;53.10;;;;;;5018605;28;20452;-70
2021/10/20 12:18:38;;;;;;;27.77;26.23;;;24.40;53.00;;;;;;5018302;28;20475;-74
2021/10/20 12:21:10;;;;;;;26.73;25.20;;;24.40;52.90;;;;;;5016995;28;20510;-70
2021/10/20 12:23:38;;;;;;;26.97;25.47;;;24.40;53.30;;;;;;5018800;28;20486;-70
2021/10/20 12:26:06;;;;;;;28.80;27.10;;;24.50;53.00;;;;;;5041847;28;20455;-70
2021/10/20 12:28:33;;;;;;;27.30;25.90;;;24.60;52.90;;;;;;5040620;28;20460;-70
2021/10/20 12:31:08;;;;;;;26.73;25.43;;;24.60;53.10;;;;;;5037632;28;20485;-70
2021/10/20 12:33:42;;;;;;;26.70;25.30;;;24.50;53.40;;;;;;5047129;28;20470;-70
2021/10/20 12:36:10;;;;;;;27.13;25.43;;;24.60;53.00;;;;;;5043756;28;20453;-70
2021/10/20 12:38:38;;;;;;;27.50;26.00;;;24.50;53.10;;;;;;5038305;28;20456;-71
2021/10/20 12:41:09;;;;;;;28.93;27.33;;;24.50;53.60;;;;;;5040913;28;20474;-71
2021/10/20 12:43:36;;;;;;;28.37;26.73;;;24.60;53.60;;;;;;5025547;28;20483;-71
2021/10/20 12:46:04;;;;;;;27.10;25.60;;;24.60;53.60;;;;;;5041297;28;20957;-71
2021/10/20 12:48:33;;;;;;;28.20;26.60;;;24.40;53.80;;;;;;5045988;28;20489;-71
2021/10/20 12:51:10;;;;;;;28.30;26.73;;;24.40;54.20;;;;;;5034871;28;20479;-71
2021/10/20 12:53:42;;;;;;;27.27;25.77;;;24.20;54.30;;;;;;5013757;28;20458;-71
2021/10/20 12:56:10;;;;;;;26.93;25.33;;;24.00;55.00;;;;;;5019416;28;20452;-71
2021/10/20 12:58:37;;;;;;;26.93;25.30;;;23.90;55.10;;;;;;5029907;28;20460;-71
2021/10/20 13:01:04;;;;;;;26.20;24.60;;;23.70;55.50;;;;;;5030243;28;20480;-71
2021/10/20 13:03:32;;;;;;;27.20;25.80;;;23.50;56.00;;;;;;5029137;28;20478;-71
2021/10/20 13:05:59;;;;;;;27.37;25.90;;;23.40;56.20;;;;;;5028114;28;20548;-71
2021/10/20 13:08:27;;;;;;;27.53;25.73;;;23.30;56.70;;;;;;5026387;28;20455;-71
2021/10/20 13:10:55;;;;;;;27.83;26.33;;;23.20;56.90;;;;;;5026384;28;20577;-71
2021/10/20 13:13:23;;;;;;;27.60;26.10;;;23.00;57.50;;;;;;5030619;28;20974;-71
2021/10/20 13:15:52;;;;;;;27.10;25.67;;;23.00;57.60;;;;;;5033976;28;20475;-70
2021/10/20 13:18:20;;;;;;;27.53;25.93;;;22.90;58.30;;;;;;5021817;28;20452;-70
2021/10/20 13:20:47;;;;;;;28.30;26.70;;;22.70;58.20;;;;;;5016274;28;20464;-76
2021/10/20 13:23:14;;;;;;;27.10;25.47;;;22.70;58.60;;;;;;5028881;28;21001;-70
2021/10/20 13:25:43;;;;;;;26.90;25.30;;;22.60;58.70;;;;;;5028855;28;20460;-70
2021/10/20 13:28:12;;;;;;;28.40;26.50;;;22.50;59.30;;;;;;5030307;28;20549;-70
2021/10/20 13:30:41;;;;;;;28.60;26.93;;;22.40;59.60;;;;;;5026391;28;20467;-70
2021/10/20 13:33:08;;;;;;;27.80;26.30;;;22.40;59.60;;;;;;5031853;28;20958;-70
2021/10/20 13:35:38;;;;;;;26.90;25.40;;;22.40;59.60;;;;;;5028270;28;20456;-72
2021/10/20 13:38:07;;;;;;;28.07;26.47;;;22.40;59.50;;;;;;5030733;28;20452;-73
2021/10/20 13:40:35;;;;;;;28.27;26.77;;;22.40;59.40;;;;;;5026185;28;20996;-74
2021/10/20 13:43:03;;;;;;;28.17;26.27;;;22.50;59.40;;;;;;5033237;28;20494;-75
2021/10/20 13:45:30;;;;;;;27.93;26.33;;;22.60;59.20;;;;;;5022586;28;20448;-74
2021/10/20 13:47:57;;;;;;;28.03;26.20;;;22.60;58.90;;;;;;5021174;28;20515;-73
2021/10/20 13:50:24;;;;;;;27.53;25.93;;;22.60;58.90;;;;;;5025714;28;22601;-74
2021/10/20 13:52:53;;;;;;;29.13;27.13;;;22.70;59.30;;;;;;5025018;28;20456;-73
2021/10/20 13:55:21;;;;;;;29.47;27.13;;;22.70;58.60;;;;;;5026052;28;20545;-74
2021/10/20 13:57:48;;;;;;;28.40;26.90;;;22.70;58.80;;;;;;5021844;28;20464;-73
2021/10/20 14:00:17;;;;;;;27.57;25.87;;;22.70;59.00;;;;;;5023766;28;20459;-68
2021/10/20 14:02:44;;;;;;;28.23;26.23;;;22.70;59.10;;;;;;5028713;28;20567;-68
2021/10/20 14:05:11;;;;;;;27.57;25.97;;;22.80;58.90;;;;;;5026822;28;20543;-69
2021/10/20 14:07:38;;;;;;;27.47;26.00;;;22.80;58.90;;;;;;5029260;28;20874;-68
2021/10/20 14:10:06;;;;;;;27.77;26.27;;;22.70;58.80;;;;;;5027178;28;20995;-69
2021/10/20 14:12:34;;;;;;;26.90;25.40;;;22.90;58.60;;;;;;5028628;28;20560;-69